Time;durP1;ratioP1;P1;durP2;ratioP2;P2;SDS_P1;SDS_P2;PMS_P1;PMS_P2;Temp;Humidity;BMP_temperature;BMP_pressure;BME280_temperature;BME280_humidity;BME280_pressure;Samples;Min_cycle;Max_cycle;Signal;HPM_P1;HPM_P2
2023/06/19 00:01:58;;;;;;;15.03;13.70;;;21.60;95.60;;;;;;5102942;27;20787;-61
2023/06/19 00:04:26;;;;;;;18.47;14.43;;;19.80;96.20;;;;;;5106222;27;20475;-61
2023/06/19 00:06:53;;;;;;;28.33;20.10;;;21.00;97.50;;;;;;5108247;27;21129;-61
2023/06/19 00:09:21;;;;;;;19.37;14.30;;;20.90;97.80;;;;;;5107183;27;20469;-60
2023/06/19 00:11:48;;;;;;;30.57;18.60;;;20.90;98.20;;;;;;5093417;27;21224;-61
2023/06/19 00:14:15;;;;;;;18.67;15.27;;;20.90;98.40;;;;;;5106099;27;20469;-61
2023/06/19 00:16:41;;;;;;;30.37;18.90;;;20.90;98.40;;;;;;5099881;27;20481;-61
2023/06/19 00:19:08;;;;;;;20.17;13.03;;;20.80;98.50;;;;;;5107040;27;20482;-61
2023/06/19 00:21:35;;;;;;;20.57;15.33;;;20.80;98.70;;;;;;5081767;27;20605;-61
2023/06/19 00:24:02;;;;;;;20.57;13.67;;;20.80;98.70;;;;;;5079564;27;20472;-62
2023/06/19 00:26:30;;;;;;;22.33;11.70;;;20.80;98.90;;;;;;5073608;28;20683;-62
2023/06/19 00:28:58;;;;;;;14.63;11.47;;;20.80;99.00;;;;;;5077527;27;20758;-60
2023/06/19 00:31:27;;;;;;;14.40;10.30;;;20.70;99.20;;;;;;5107934;27;20471;-61
2023/06/19 00:33:54;;;;;;;20.30;10.60;;;20.60;98.90;;;;;;5085558;27;20658;-61
2023/06/19 00:36:21;;;;;;;15.70;9.37;;;20.50;98.60;;;;;;5088030;27;20529;-61
2023/06/19 00:38:48;;;;;;;20.47;12.50;;;20.50;98.60;;;;;;5106609;27;20635;-61
2023/06/19 00:41:16;;;;;;;11.63;7.67;;;20.70;98.60;;;;;;5104947;27;20480;-61
2023/06/19 00:43:44;;;;;;;10.97;7.83;;;20.70;98.40;;;;;;5107118;27;20715;-61
2023/06/19 00:46:12;;;;;;;7.20;6.27;;;20.70;98.30;;;;;;5104256;27;20829;-60
2023/06/19 00:48:40;;;;;;;7.43;4.93;;;20.70;98.20;;;;;;5071706;27;20628;-61
2023/06/19 00:51:07;;;;;;;10.20;5.63;;;20.60;98.40;;;;;;5100856;27;20495;-61
2023/06/19 00:53:34;;;;;;;11.07;6.90;;;20.70;98.70;;;;;;5104411;27;20469;-60
2023/06/19 00:56:02;;;;;;;14.70;6.43;;;20.70;98.40;;;;;;5091473;27;20483;-60
2023/06/19 00:58:29;;;;;;;7.27;5.27;;;20.80;98.50;;;;;;5029418;28;20463;-60
2023/06/19 01:00:58;;;;;;;7.00;4.77;;;20.80;98.70;;;;;;5066150;28;20868;-61
2023/06/19 01:03:26;;;;;;;10.73;4.27;;;20.80;99.00;;;;;;5061406;28;20994;-61
2023/06/19 01:05:55;;;;;;;5.67;4.97;;;20.70;99.10;;;;;;5046310;28;20545;-61
2023/06/19 01:08:38;;;;;;;6.93;5.43;;;20.60;99.20;;;;;;5050947;28;20611;-61
2023/06/19 01:11:05;;;;;;;10.17;5.20;;;20.70;99.10;;;;;;5077956;28;20504;-61
2023/06/19 01:13:38;;;;;;;7.67;6.07;;;20.80;99.00;;;;;;5090885;28;20481;-61
2023/06/19 01:16:07;;;;;;;7.43;5.53;;;20.90;99.00;;;;;;5079689;28;21041;-61
2023/06/19 01:18:35;;;;;;;8.53;6.13;;;20.90;98.90;;;;;;5071064;28;20482;-61
2023/06/19 01:21:13;;;;;;;5.30;4.80;;;20.90;99.00;;;;;;5062652;28;20933;-61
2023/06/19 01:23:41;;;;;;;6.80;5.33;;;20.80;99.30;;;;;;5068566;28;20494;-61
2023/06/19 01:26:09;;;;;;;5.97;4.57;;;20.80;99.40;;;;;;5070724;28;20479;-61
2023/06/19 01:28:37;;;;;;;9.73;5.83;;;20.70;99.70;;;;;;5086858;28;20478;-60
2023/06/19 01:31:06;;;;;;;10.07;6.83;;;20.60;99.90;;;;;;5094900;28;20564;-60
2023/06/19 01:33:35;;;;;;;7.97;5.30;;;20.40;99.90;;;;;;5093786;28;20462;-61
2023/06/19 01:36:04;;;;;;;5.67;5.03;;;20.30;99.90;;;;;;5064660;28;20497;-61
2023/06/19 01:38:32;;;;;;;8.10;5.97;;;20.20;99.90;;;;;;5054551;28;20480;-61
2023/06/19 01:41:01;;;;;;;6.60;5.63;;;20.10;99.90;;;;;;5085527;28;20482;-61
2023/06/19 01:43:30;;;;;;;13.13;5.70;;;20.10;99.90;;;;;;5095382;28;20476;-61
2023/06/19 01:45:57;;;;;;;10.30;6.80;;;20.10;99.90;;;;;;5095864;28;20488;-61
2023/06/19 01:48:24;;;;;;;21.03;6.07;;;20.10;99.90;;;;;;5095819;28;20486;-61
2023/06/19 01:50:52;;;;;;;6.30;5.67;;;20.20;99.90;;;;;;5080901;28;20477;-61
2023/06/19 01:53:19;;;;;;;6.90;5.37;;;20.30;99.90;;;;;;5076691;28;20490;-61
2023/06/19 01:55:46;;;;;;;23.73;8.33;;;20.50;99.60;;;;;;5099894;28;20598;-60
2023/06/19 01:58:14;;;;;;;11.30;7.07;;;20.50;99.70;;;;;;5062012;28;20850;-61
2023/06/19 02:00:41;;;;;;;9.23;7.37;;;20.50;99.80;;;;;;5097029;28;20474;-60
2023/06/19 02:03:07;;;;;;;12.87;5.97;;;20.30;99.90;;;;;;5099108;28;20485;-60
2023/06/19 02:05:39;;;;;;;10.47;7.47;;;20.20;99.90;;;;;;5095504;28;20470;-60
2023/06/19 02:08:06;;;;;;;8.17;6.13;;;20.10;99.90;;;;;;5096548;28;20792;-60
2023/06/19 02:10:32;;;;;;;14.17;6.70;;;20.10;99.90;;;;;;5096128;28;20481;-60
2023/06/19 02:12:59;;;;;;;9.00;7.00;;;20.00;99.90;;;;;;5101154;27;20949;-61
2023/06/19 02:15:27;;;;;;;9.53;6.70;;;20.00;99.90;;;;;;5096482;28;21074;-61
2023/06/19 02:17:56;;;;;;;11.90;6.40;;;19.90;99.90;;;;;;5085132;28;20492;-60
2023/06/19 02:20:24;;;;;;;7.60;6.67;;;19.90;99.90;;;;;;5083771;28;20490;-60
2023/06/19 02:22:51;;;;;;;9.57;6.40;;;19.90;99.90;;;;;;5059568;28;20493;-60
2023/06/19 02:25:18;;;;;;;10.30;6.03;;;19.80;99.90;;;;;;5082525;28;20482;-61
2023/06/19 02:27:45;;;;;;;10.07;8.03;;;19.70;99.90;;;;;;5084548;28;20672;-61
2023/06/19 02:30:13;;;;;;;11.27;8.47;;;19.70;99.90;;;;;;5075605;28;20478;-60
2023/06/19 02:32:41;;;;;;;17.43;7.53;;;19.80;99.90;;;;;;5086747;28;21071;-60
2023/06/19 02:35:11;;;;;;;9.87;7.27;;;19.70;99.90;;;;;;5096930;28;20609;-60
2023/06/19 02:37:37;;;;;;;13.27;7.93;;;20.00;99.90;;;;;;5098427;28;20474;-60
2023/06/19 02:40:06;;;;;;;12.20;8.60;;;19.70;99.90;;;;;;5093321;28;20545;-60
2023/06/19 02:42:33;;;;;;;9.60;6.80;;;19.60;99.90;;;;;;5097845;28;20936;-60
2023/06/19 02:45:03;;;;;;;17.97;8.13;;;19.60;99.90;;;;;;5090390;28;20482;-60
2023/06/19 02:47:30;;;;;;;10.00;8.07;;;18.70;99.90;;;;;;5071071;28;20486;-60
2023/06/19 02:49:59;;;;;;;14.10;8.27;;;19.60;99.90;;;;;;5097045;28;20906;-60
2023/06/19 02:52:26;;;;;;;8.10;6.93;;;19.70;99.90;;;;;;5096444;28;20645;-60
2023/06/19 02:54:53;;;;;;;12.70;8.23;;;19.70;99.90;;;;;;5081708;28;21009;-60
2023/06/19 02:57:20;;;;;;;11.97;8.27;;;19.70;99.90;;;;;;5065871;28;20486;-60
2023/06/19 02:59:47;;;;;;;12.97;9.17;;;19.60;99.90;;;;;;5063469;28;20667;-60
2023/06/19 03:02:14;;;;;;;18.13;10.30;;;19.60;99.90;;;;;;5075553;28;21006;-59
2023/06/19 03:04:41;;;;;;;18.87;10.83;;;19.60;99.90;;;;;;5059134;28;20549;-60
2023/06/19 03:07:09;;;;;;;13.33;8.63;;;19.60;99.90;;;;;;5054985;28;20484;-59
2023/06/19 03:09:37;;;;;;;19.80;9.97;;;19.60;99.90;;;;;;5057558;28;20487;-59
2023/06/19 03:12:04;;;;;;;15.50;8.90;;;19.70;99.90;;;;;;5060066;28;20964;-59
2023/06/19 03:14:31;;;;;;;18.40;9.30;;;19.60;99.90;;;;;;5048901;28;20487;-60
2023/06/19 03:16:58;;;;;;;18.30;11.37;;;19.60;99.90;;;;;;5076269;27;20489;-60
2023/06/19 03:19:25;;;;;;;13.37;9.07;;;19.70;99.90;;;;;;5091765;27;20868;-59
2023/06/19 03:21:51;;;;;;;22.70;8.03;;;19.70;99.90;;;;;;5091655;27;21179;-59
2023/06/19 03:24:20;;;;;;;9.53;7.43;;;19.70;99.90;;;;;;5095718;28;20578;-60
2023/06/19 03:26:46;;;;;;;14.23;10.23;;;19.70;99.90;;;;;;5095935;28;20734;-60
2023/06/19 03:29:13;;;;;;;13.70;8.90;;;19.60;99.90;;;;;;5095274;28;20485;-61
2023/06/19 03:31:41;;;;;;;17.13;10.07;;;19.60;99.90;;;;;;5069679;28;20497;-62
2023/06/19 03:34:08;;;;;;;14.17;9.87;;;19.60;99.90;;;;;;5093340;28;20546;-59
2023/06/19 03:36:34;;;;;;;13.20;8.73;;;19.60;99.90;;;;;;5063241;28;20999;-59
2023/06/19 03:39:01;;;;;;;15.90;10.87;;;19.80;99.90;;;;;;5062302;28;20482;-60
2023/06/19 03:41:29;;;;;;;12.80;8.40;;;19.80;99.90;;;;;;5098174;28;20550;-60
2023/06/19 03:43:56;;;;;;;19.57;12.50;;;19.90;99.90;;;;;;5076572;28;20874;-60
2023/06/19 03:46:23;;;;;;;10.43;8.67;;;19.80;99.90;;;;;;5091263;28;20481;-60
2023/06/19 03:48:50;;;;;;;14.90;11.30;;;19.90;99.90;;;;;;5098563;28;21082;-59
2023/06/19 03:51:17;;;;;;;8.30;6.90;;;19.90;99.90;;;;;;5097062;28;20480;-60
2023/06/19 03:53:44;;;;;;;13.73;8.97;;;19.70;99.90;;;;;;5094622;28;20491;-60
2023/06/19 03:56:10;;;;;;;17.20;12.60;;;19.70;99.90;;;;;;5095014;28;20962;-61
2023/06/19 03:58:38;;;;;;;19.03;9.77;;;19.70;99.90;;;;;;5096716;28;21099;-61
2023/06/19 04:01:05;;;;;;;12.40;9.33;;;19.80;99.90;;;;;;5098720;28;20492;-60
2023/06/19 04:03:32;;;;;;;13.43;10.23;;;19.80;99.90;;;;;;5084521;28;20478;-60
2023/06/19 04:05:59;;;;;;;18.13;11.33;;;19.80;99.90;;;;;;5074773;28;20807;-60
2023/06/19 04:08:26;;;;;;;9.03;8.10;;;19.70;99.90;;;;;;5064715;28;20524;-60
2023/06/19 04:10:53;;;;;;;13.13;10.30;;;19.70;99.90;;;;;;5078599;28;20488;-61
2023/06/19 04:13:20;;;;;;;15.70;9.07;;;19.70;99.90;;;;;;5076232;28;20885;-61
2023/06/19 04:15:48;;;;;;;15.07;11.77;;;19.70;99.90;;;;;;5087214;28;20483;-60
2023/06/19 04:18:15;;;;;;;11.83;9.20;;;19.80;99.90;;;;;;5044115;28;20965;-60
2023/06/19 04:20:42;;;;;;;14.03;9.03;;;20.00;99.90;;;;;;5080901;28;20472;-60
2023/06/19 04:23:09;;;;;;;14.63;10.83;;;20.20;99.90;;;;;;5090540;28;20491;-59
2023/06/19 04:26:33;;;;;;;13.23;9.73;;;20.30;99.90;;;;;;5083781;28;20470;-60
2023/06/19 04:29:06;;;;;;;10.23;9.17;;;20.30;99.90;;;;;;5058172;28;20888;-60
2023/06/19 04:31:40;;;;;;;12.10;9.37;;;20.30;99.90;;;;;;5080855;28;20985;-60
2023/06/19 04:34:07;;;;;;;15.90;11.60;;;20.20;99.90;;;;;;5045884;28;20497;-60
2023/06/19 04:36:34;;;;;;;18.50;10.30;;;20.30;99.90;;;;;;5068806;28;20913;-60
2023/06/19 04:39:01;;;;;;;15.03;11.77;;;20.20;99.90;;;;;;5068494;28;21096;-60
2023/06/19 04:41:27;;;;;;;9.17;8.27;;;20.10;99.90;;;;;;5086358;28;20483;-60
2023/06/19 04:43:54;;;;;;;12.00;8.40;;;20.10;99.90;;;;;;5076007;28;20483;-60
2023/06/19 04:46:21;;;;;;;16.20;10.40;;;20.10;99.90;;;;;;5078409;28;20537;-60
2023/06/19 04:48:50;;;;;;;16.53;13.17;;;20.10;99.90;;;;;;5075300;28;20925;-60
2023/06/19 04:51:20;;;;;;;15.43;10.07;;;20.00;99.90;;;;;;5093453;28;21331;-60
2023/06/19 04:53:46;;;;;;;16.87;13.10;;;20.10;99.90;;;;;;5096991;28;20512;-60
2023/06/19 04:56:13;;;;;;;13.60;11.27;;;20.10;99.90;;;;;;5091801;28;20500;-60
2023/06/19 04:58:45;;;;;;;18.33;12.40;;;20.10;99.90;;;;;;5073220;28;21050;-60
2023/06/19 05:01:12;;;;;;;13.90;11.73;;;20.10;99.90;;;;;;5063074;28;20478;-60
2023/06/19 05:03:40;;;;;;;26.60;12.00;;;20.20;99.90;;;;;;5090714;28;20479;-60
2023/06/19 05:06:08;;;;;;;13.27;10.40;;;20.10;99.90;;;;;;5091287;28;20482;-60
2023/06/19 05:08:35;;;;;;;15.47;10.50;;;20.30;99.90;;;;;;5082378;28;20565;-60
2023/06/19 05:11:02;;;;;;;14.43;10.60;;;20.30;99.90;;;;;;5088849;28;20477;-60
2023/06/19 05:13:29;;;;;;;11.90;10.50;;;20.40;99.90;;;;;;5095429;28;20481;-60
2023/06/19 05:15:56;;;;;;;21.63;13.83;;;20.40;99.90;;;;;;5093090;27;20486;-60
2023/06/19 05:18:23;;;;;;;11.57;9.70;;;20.30;99.90;;;;;;5094984;28;20781;-60
2023/06/19 05:20:50;;;;;;;19.73;14.70;;;20.30;99.90;;;;;;5077521;28;21069;-61
2023/06/19 05:23:18;;;;;;;14.67;10.93;;;20.40;99.90;;;;;;5058799;28;20967;-61
2023/06/19 05:25:45;;;;;;;21.30;12.40;;;20.40;99.90;;;;;;5081845;28;21135;-59
2023/06/19 05:28:12;;;;;;;17.43;11.97;;;20.50;99.90;;;;;;5090785;28;20842;-60
2023/06/19 05:30:39;;;;;;;19.93;15.57;;;20.60;99.90;;;;;;5095373;28;20473;-60
2023/06/19 05:33:05;;;;;;;12.10;10.30;;;20.60;99.90;;;;;;5092395;28;20477;-61
2023/06/19 05:35:32;;;;;;;12.77;10.93;;;20.70;99.90;;;;;;5064034;28;20871;-60
2023/06/19 05:37:59;;;;;;;19.43;13.50;;;20.80;99.90;;;;;;5080360;28;20502;-60
2023/06/19 05:40:28;;;;;;;13.03;10.20;;;20.80;99.90;;;;;;5073731;28;20477;-60
2023/06/19 05:42:56;;;;;;;20.43;14.50;;;;;;;;;;5093094;28;20465;-61
2023/06/19 05:45:23;;;;;;;28.70;12.00;;;21.00;99.90;;;;;;5098484;28;20544;-60
2023/06/19 05:47:50;;;;;;;18.03;12.53;;;21.00;99.90;;;;;;5083624;28;20493;-62
2023/06/19 05:50:17;;;;;;;13.03;11.63;;;20.90;99.90;;;;;;5069486;28;20474;-60
2023/06/19 05:52:43;;;;;;;19.60;12.80;;;20.90;99.90;;;;;;5090509;28;20477;-61
2023/06/19 05:55:11;;;;;;;20.53;13.30;;;21.00;99.90;;;;;;5081649;28;20494;-61
2023/06/19 05:57:39;;;;;;;14.43;12.20;;;21.10;99.90;;;;;;5079876;28;20478;-60
2023/06/19 06:00:10;;;;;;;18.23;12.90;;;21.00;99.90;;;;;;5094100;28;20489;-61
2023/06/19 06:02:37;;;;;;;19.53;12.93;;;20.90;99.90;;;;;;5094299;28;21041;-60
2023/06/19 06:05:05;;;;;;;18.60;13.60;;;20.80;99.90;;;;;;5080577;28;20490;-59
2023/06/19 06:07:32;;;;;;;16.47;13.13;;;20.80;99.90;;;;;;5084194;28;20487;-61
2023/06/19 06:09:59;;;;;;;19.47;14.53;;;21.10;99.90;;;;;;5092627;28;20474;-60
2023/06/19 06:12:25;;;;;;;15.60;12.53;;;20.70;99.90;;;;;;5092704;28;20993;-59
2023/06/19 06:14:53;;;;;;;22.20;16.90;;;20.70;99.90;;;;;;5096941;28;20487;-60
2023/06/19 06:17:20;;;;;;;23.40;11.40;;;20.90;99.90;;;;;;5057359;28;21046;-60
2023/06/19 06:19:47;;;;;;;17.60;13.90;;;20.90;99.90;;;;;;5071289;28;20790;-60
2023/06/19 06:22:14;;;;;;;18.70;14.90;;;21.00;99.90;;;;;;5075828;28;20480;-60
2023/06/19 06:24:41;;;;;;;17.57;12.63;;;21.00;99.90;;;;;;5082262;28;20490;-60
2023/06/19 06:27:08;;;;;;;17.43;15.50;;;21.00;99.90;;;;;;5077194;28;20514;-60
2023/06/19 06:29:36;;;;;;;16.67;13.77;;;21.10;99.90;;;;;;5076522;28;20476;-60
2023/06/19 06:32:09;;;;;;;20.93;14.13;;;21.10;99.90;;;;;;5094082;28;20478;-60
2023/06/19 06:34:35;;;;;;;24.93;16.30;;;21.10;99.90;;;;;;5079879;28;20488;-60
2023/06/19 06:37:03;;;;;;;20.90;17.53;;;21.10;99.90;;;;;;5076641;28;20596;-60
2023/06/19 06:39:31;;;;;;;18.37;16.40;;;21.00;99.90;;;;;;5087080;28;20470;-60
2023/06/19 06:41:58;;;;;;;21.50;17.53;;;21.10;99.90;;;;;;5079527;28;20510;-60
2023/06/19 06:44:25;;;;;;;27.70;16.13;;;21.20;99.90;;;;;;5085622;28;20469;-60
2023/06/19 06:46:52;;;;;;;23.80;19.90;;;21.20;99.90;;;;;;5079643;28;20486;-60
2023/06/19 06:49:20;;;;;;;26.63;16.43;;;21.20;99.90;;;;;;5073764;28;20490;-60
2023/06/19 06:51:47;;;;;;;15.97;14.37;;;21.20;99.90;;;;;;5074135;28;20508;-60
2023/06/19 06:54:14;;;;;;;20.40;16.60;;;21.20;99.90;;;;;;5064660;28;20474;-60
2023/06/19 06:56:41;;;;;;;17.47;13.70;;;21.10;99.90;;;;;;5071968;28;20978;-60
2023/06/19 06:59:08;;;;;;;17.10;15.33;;;21.20;99.90;;;;;;5078102;28;20484;-60
2023/06/19 07:01:34;;;;;;;15.33;13.73;;;21.10;99.90;;;;;;5074591;28;20500;-60
2023/06/19 07:04:02;;;;;;;23.20;16.77;;;21.10;99.90;;;;;;5056649;28;20473;-60
2023/06/19 07:06:30;;;;;;;13.50;11.90;;;21.10;99.90;;;;;;5075739;28;20830;-60
2023/06/19 07:08:56;;;;;;;22.57;16.37;;;21.10;99.90;;;;;;5082991;28;20478;-60
2023/06/19 07:11:23;;;;;;;17.40;13.00;;;21.30;99.90;;;;;;5092815;28;20479;-60
2023/06/19 07:13:50;;;;;;;21.47;14.37;;;21.50;99.90;;;;;;5064517;28;20949;-60
2023/06/19 07:16:17;;;;;;;14.80;12.73;;;21.60;99.90;;;;;;5090351;27;20479;-60
2023/06/19 07:18:44;;;;;;;15.63;13.43;;;21.70;99.90;;;;;;5067729;28;20494;-60
2023/06/19 07:21:13;;;;;;;15.87;11.80;;;21.90;99.90;;;;;;5083532;28;20647;-60
2023/06/19 07:23:42;;;;;;;15.20;13.60;;;22.00;99.90;;;;;;5063166;28;20483;-60
2023/06/19 07:26:10;;;;;;;14.60;13.00;;;22.10;99.90;;;;;;5093062;28;20482;-60
2023/06/19 07:28:36;;;;;;;29.37;12.30;;;22.30;99.90;;;;;;5070211;28;21045;-60
2023/06/19 07:31:03;;;;;;;13.20;11.87;;;22.30;99.90;;;;;;5078007;28;21123;-60
2023/06/19 07:33:30;;;;;;;15.37;12.60;;;22.40;99.90;;;;;;5074966;28;20483;-60
2023/06/19 07:35:57;;;;;;;28.63;13.20;;;22.50;99.90;;;;;;5090888;28;20483;-60
2023/06/19 07:38:24;;;;;;;14.00;11.80;;;22.50;99.90;;;;;;5092255;28;20588;-61
2023/06/19 07:40:52;;;;;;;17.70;13.83;;;22.80;99.90;;;;;;5066335;28;20843;-61
2023/06/19 07:43:19;;;;;;;16.00;10.20;;;22.60;99.90;;;;;;5059768;28;20483;-60
2023/06/19 07:45:46;;;;;;;14.37;11.10;;;22.70;99.90;;;;;;5064614;28;20516;-60
2023/06/19 07:48:13;;;;;;;11.67;10.23;;;22.80;99.90;;;;;;5074146;28;20467;-60
2023/06/19 07:50:39;;;;;;;21.03;8.87;;;22.90;99.90;;;;;;5079214;28;20499;-60
2023/06/19 07:53:06;;;;;;;11.60;9.70;;;22.80;99.90;;;;;;5089829;28;20704;-59
2023/06/19 07:55:35;;;;;;;26.83;11.10;;;22.80;99.90;;;;;;5092535;28;20483;-60
2023/06/19 07:58:03;;;;;;;18.83;10.40;;;23.10;99.90;;;;;;5071717;28;20578;-60
2023/06/19 08:00:29;;;;;;;11.47;9.00;;;23.20;99.60;;;;;;5094595;28;20480;-60
2023/06/19 08:02:57;;;;;;;18.07;12.83;;;23.40;99.90;;;;;;5050006;28;20481;-60
2023/06/19 08:05:24;;;;;;;11.57;7.47;;;23.60;99.80;;;;;;5078917;28;21007;-60
2023/06/19 08:07:51;;;;;;;17.37;10.43;;;23.80;99.40;;;;;;5091856;28;20774;-60
2023/06/19 08:10:18;;;;;;;11.37;8.33;;;23.90;98.50;;;;;;5059632;28;20469;-60
2023/06/19 08:12:45;;;;;;;16.57;9.67;;;24.00;98.00;;;;;;5081771;28;20498;-60
2023/06/19 08:15:14;;;;;;;11.30;7.63;;;24.00;98.30;;;;;;5053797;28;20461;-59
2023/06/19 08:17:41;;;;;;;13.03;7.27;;;24.10;97.70;;;;;;5056166;28;20861;-60
2023/06/19 08:20:09;;;;;;;11.20;5.20;;;24.00;97.40;;;;;;5071374;28;20481;-60
2023/06/19 08:22:36;;;;;;;8.90;6.70;;;24.30;97.60;;;;;;5077411;28;21083;-60
2023/06/19 08:25:03;;;;;;;15.97;8.47;;;24.40;96.70;;;;;;5086953;28;20818;-61
2023/06/19 08:27:30;;;;;;;12.27;6.17;;;24.40;96.60;;;;;;5092974;28;20822;-62
2023/06/19 08:29:57;;;;;;;13.90;10.53;;;24.30;96.10;;;;;;5094985;28;20472;-61
2023/06/19 08:32:26;;;;;;;12.57;7.47;;;24.20;96.30;;;;;;5095969;28;20499;-62
2023/06/19 08:34:53;;;;;;;19.63;11.57;;;24.10;96.10;;;;;;5078347;28;20484;-61
2023/06/19 08:37:20;;;;;;;8.00;7.20;;;24.00;96.10;;;;;;5068305;28;20491;-60
2023/06/19 08:39:47;;;;;;;12.20;9.20;;;24.00;96.20;;;;;;5092428;28;20904;-60
2023/06/19 08:42:13;;;;;;;12.53;6.63;;;24.30;96.70;;;;;;5095251;28;21871;-61
2023/06/19 08:44:40;;;;;;;11.30;8.63;;;24.50;96.50;;;;;;5065568;28;20491;-60
2023/06/19 08:47:08;;;;;;;11.53;8.07;;;24.70;97.10;;;;;;5092619;28;20492;-61
2023/06/19 08:49:36;;;;;;;13.07;7.10;;;24.90;97.00;;;;;;5096187;28;20475;-61
2023/06/19 08:52:04;;;;;;;8.10;7.27;;;25.00;96.20;;;;;;5075546;28;20496;-60
2023/06/19 08:54:31;;;;;;;9.07;6.60;;;24.80;95.60;;;;;;5084846;28;20562;-60
2023/06/19 08:57:01;;;;;;;13.60;8.30;;;24.90;95.80;;;;;;5088944;28;20479;-60
2023/06/19 08:59:29;;;;;;;8.97;7.37;;;25.10;95.20;;;;;;5093277;28;20498;-61
2023/06/19 09:01:56;;;;;;;13.50;10.20;;;25.20;94.80;;;;;;5095688;28;20481;-61
2023/06/19 09:04:26;;;;;;;10.10;7.00;;;25.30;95.50;;;;;;5092184;28;20467;-61
2023/06/19 09:06:55;;;;;;;11.90;9.37;;;25.30;95.30;;;;;;5097198;28;20834;-60
2023/06/19 09:09:24;;;;;;;6.93;6.30;;;25.40;94.50;;;;;;5097399;28;20474;-61
2023/06/19 09:12:01;;;;;;;8.53;7.70;;;25.50;94.30;;;;;;5098160;28;20481;-60
2023/06/19 09:14:35;;;;;;;9.63;6.40;;;25.50;94.10;;;;;;5086037;28;20483;-60
2023/06/19 09:17:03;;;;;;;10.53;7.70;;;25.40;94.60;;;;;;5094326;28;20481;-60
2023/06/19 09:19:30;;;;;;;8.23;6.33;;;25.50;94.70;;;;;;5091221;28;20479;-61
2023/06/19 09:22:02;;;;;;;12.83;10.33;;;25.40;94.70;;;;;;5094925;28;20705;-61
2023/06/19 09:24:35;;;;;;;7.50;6.33;;;25.40;94.00;;;;;;5095592;28;20479;-61
2023/06/19 09:27:13;;;;;;;10.47;8.23;;;25.60;94.60;;;;;;5092219;28;20995;-60
2023/06/19 09:29:41;;;;;;;10.10;7.73;;;25.60;94.40;;;;;;5093791;28;20474;-61
2023/06/19 09:32:19;;;;;;;8.70;7.90;;;25.60;94.10;;;;;;5093943;28;20486;-61
2023/06/19 09:34:46;;;;;;;10.57;7.67;;;25.60;94.50;;;;;;5093941;28;20476;-61
2023/06/19 09:37:14;;;;;;;9.50;8.53;;;25.70;94.50;;;;;;5093887;28;20801;-61
2023/06/19 09:39:42;;;;;;;9.80;7.20;;;;;;;;;;5090128;28;20837;-61
2023/06/19 09:42:09;;;;;;;7.00;5.50;;;25.90;93.30;;;;;;5090877;28;20673;-61
2023/06/19 09:44:42;;;;;;;7.53;6.83;;;25.70;92.90;;;;;;5094128;28;20822;-61
2023/06/19 09:47:16;;;;;;;6.70;5.93;;;;;;;;;;5094244;28;20491;-61
2023/06/19 09:49:49;;;;;;;12.23;5.97;;;26.10;93.40;;;;;;5094960;28;20578;-61
2023/06/19 09:52:19;;;;;;;6.50;4.87;;;26.00;92.90;;;;;;5092641;28;20481;-61
2023/06/19 09:54:47;;;;;;;9.37;7.07;;;26.00;93.10;;;;;;5094780;28;20862;-61
2023/06/19 09:57:14;;;;;;;7.07;6.37;;;26.10;92.20;;;;;;5092892;28;20488;-61
2023/06/19 09:59:42;;;;;;;8.23;7.43;;;26.20;92.70;;;;;;5094911;28;20529;-61
2023/06/19 10:02:11;;;;;;;8.07;6.70;;;26.40;93.20;;;;;;5088447;28;20507;-61
2023/06/19 10:04:45;;;;;;;7.73;6.60;;;26.40;92.40;;;;;;5093318;28;20881;-61
2023/06/19 10:07:21;;;;;;;10.73;5.53;;;26.40;92.40;;;;;;5090675;28;20491;-61
2023/06/19 10:09:59;;;;;;;5.90;5.40;;;26.70;92.10;;;;;;5094431;28;20487;-63
2023/06/19 10:12:38;;;;;;;9.80;5.40;;;26.90;91.70;;;;;;5095217;28;20477;-62
2023/06/19 10:15:11;;;;;;;6.17;5.57;;;26.90;91.50;;;;;;5066885;28;21029;-62
2023/06/19 10:17:38;;;;;;;7.20;6.50;;;27.10;91.50;;;;;;5096453;27;20500;-63
2023/06/19 10:20:13;;;;;;;13.80;7.97;;;26.90;91.80;;;;;;5097075;28;20532;-62
2023/06/19 10:22:52;;;;;;;6.70;5.97;;;26.90;92.00;;;;;;5098529;28;20858;-61
2023/06/19 10:25:23;;;;;;;9.97;4.87;;;27.00;91.70;;;;;;5098245;28;20880;-61
2023/06/19 10:27:52;;;;;;;5.90;4.87;;;27.10;91.90;;;;;;5097556;28;20795;-61
2023/06/19 10:30:19;;;;;;;9.83;5.17;;;27.30;91.60;;;;;;5097848;28;20580;-61
2023/06/19 10:32:46;;;;;;;7.33;4.90;;;27.20;91.10;;;;;;5097704;28;21101;-61
2023/06/19 10:35:14;;;;;;;6.87;5.23;;;27.30;90.60;;;;;;5097028;28;20496;-62
2023/06/19 10:37:42;;;;;;;8.70;4.77;;;27.30;90.10;;;;;;5098656;28;21292;-61
2023/06/19 10:40:12;;;;;;;7.60;6.03;;;27.60;92.10;;;;;;5095839;28;20500;-61
2023/06/19 10:42:40;;;;;;;8.73;7.50;;;27.50;90.80;;;;;;5098610;28;21928;-61
2023/06/19 10:45:09;;;;;;;7.83;5.80;;;27.70;90.90;;;;;;5096721;28;20514;-61
2023/06/19 10:47:36;;;;;;;6.10;5.50;;;27.80;90.30;;;;;;5096895;28;20485;-60
2023/06/19 10:50:03;;;;;;;5.23;4.80;;;;;;;;;;5096765;28;20569;-61
2023/06/19 10:52:30;;;;;;;4.73;4.33;;;28.00;90.50;;;;;;5096446;28;21176;-63
2023/06/19 10:54:58;;;;;;;6.73;5.30;;;27.90;90.70;;;;;;5097378;28;20471;-62
2023/06/19 10:57:29;;;;;;;13.73;6.00;;;27.80;90.00;;;;;;5097574;28;20479;-60
2023/06/19 10:59:58;;;;;;;5.30;4.90;;;28.00;90.10;;;;;;5096552;28;20487;-61
2023/06/19 11:02:25;;;;;;;5.03;4.43;;;28.20;88.40;;;;;;5097182;28;20682;-61
2023/06/19 11:04:54;;;;;;;5.33;4.83;;;28.60;88.70;;;;;;5095149;28;20485;-62
2023/06/19 11:07:22;;;;;;;6.03;5.43;;;28.50;88.60;;;;;;5096953;28;20493;-62
2023/06/19 11:09:49;;;;;;;6.90;4.27;;;28.80;88.10;;;;;;5080030;27;21006;-61
2023/06/19 11:12:21;;;;;;;15.93;5.27;;;29.10;89.30;;;;;;5095655;27;20454;-61
2023/06/19 11:14:49;;;;;;;5.10;4.60;;;29.10;86.10;;;;;;5103053;27;20484;-61
2023/06/19 11:17:16;;;;;;;4.90;4.50;;;29.30;87.10;;;;;;5105309;27;20477;-62
2023/06/19 11:19:44;;;;;;;5.30;4.67;;;29.10;83.00;;;;;;5105009;27;21033;-61
2023/06/19 11:22:11;;;;;;;8.87;5.37;;;29.30;86.50;;;;;;5107725;27;20478;-62
2023/06/19 11:24:38;;;;;;;4.43;3.63;;;29.50;85.90;;;;;;5109778;27;21003;-61
2023/06/19 11:27:05;;;;;;;10.93;4.53;;;29.80;83.10;;;;;;5108364;27;21143;-61
2023/06/19 11:29:36;;;;;;;5.23;4.57;;;29.90;85.10;;;;;;5109398;27;20885;-62
2023/06/19 11:32:08;;;;;;;7.50;4.80;;;30.20;84.90;;;;;;5108119;27;20507;-62
2023/06/19 11:34:36;;;;;;;4.40;4.10;;;30.40;86.00;;;;;;5081647;27;20491;-62
2023/06/19 11:37:05;;;;;;;5.07;4.67;;;30.40;83.00;;;;;;5109675;27;20446;-62
2023/06/19 11:39:32;;;;;;;8.40;4.70;;;30.00;80.80;;;;;;5107537;27;20575;-62
2023/06/19 11:42:00;;;;;;;4.53;4.00;;;29.80;82.90;;;;;;5106154;27;20454;-62
2023/06/19 11:44:26;;;;;;;4.53;4.17;;;29.60;83.40;;;;;;5108207;27;20484;-61
2023/06/19 11:46:58;;;;;;;4.90;3.87;;;29.90;82.80;;;;;;5107256;27;20488;-62
2023/06/19 11:49:25;;;;;;;4.77;4.37;;;29.70;81.50;;;;;;5107334;27;20533;-62
2023/06/19 11:51:53;;;;;;;4.70;4.20;;;29.70;83.00;;;;;;5107351;27;20476;-63
2023/06/19 11:54:20;;;;;;;7.20;4.70;;;29.60;84.40;;;;;;5107613;27;20487;-62
2023/06/19 11:56:48;;;;;;;6.07;4.40;;;29.40;83.80;;;;;;5107872;27;21016;-63
2023/06/19 11:59:15;;;;;;;5.20;4.80;;;29.10;82.10;;;;;;5107314;27;20969;-62
2023/06/19 12:01:42;;;;;;;6.90;3.50;;;28.90;83.30;;;;;;5109502;27;20466;-62
2023/06/19 12:04:10;;;;;;;5.80;3.97;;;29.00;84.00;;;;;;5095247;27;20883;-61
2023/06/19 12:06:37;;;;;;;4.87;4.47;;;29.00;85.80;;;;;;5094792;27;20462;-62
2023/06/19 12:09:05;;;;;;;7.93;4.50;;;28.40;83.30;;;;;;5081351;27;20941;-62
2023/06/19 12:11:32;;;;;;;4.80;4.00;;;28.40;83.30;;;;;;5107969;27;20476;-62
2023/06/19 12:13:59;;;;;;;4.93;4.53;;;28.20;86.60;;;;;;5107336;27;20495;-62
2023/06/19 12:16:27;;;;;;;9.50;4.57;;;28.00;87.50;;;;;;5105543;27;20480;-62
2023/06/19 12:18:54;;;;;;;4.80;4.50;;;27.70;87.80;;;;;;5108816;27;20821;-62
2023/06/19 12:21:22;;;;;;;6.50;4.37;;;27.60;87.30;;;;;;5106606;27;20490;-62
2023/06/19 12:23:49;;;;;;;7.97;5.00;;;27.50;86.80;;;;;;5106467;27;20466;-59
2023/06/19 12:26:16;;;;;;;5.70;5.20;;;27.40;87.60;;;;;;5106093;27;20857;-63
2023/06/19 12:28:42;;;;;;;4.30;4.00;;;27.40;88.90;;;;;;5106611;27;20489;-62
2023/06/19 12:31:10;;;;;;;8.43;4.90;;;27.30;89.00;;;;;;5107064;27;20950;-61
2023/06/19 12:33:42;;;;;;;4.53;4.23;;;27.30;90.10;;;;;;5098686;27;20466;-62
2023/06/19 12:36:12;;;;;;;8.33;4.80;;;27.40;87.60;;;;;;5094161;28;20458;-62
2023/06/19 12:38:40;;;;;;;6.13;4.10;;;27.40;87.90;;;;;;5096198;28;20462;-61
2023/06/19 12:41:07;;;;;;;8.13;4.17;;;27.40;87.70;;;;;;5065106;28;20509;-61
2023/06/19 12:43:34;;;;;;;11.43;5.10;;;27.50;88.10;;;;;;5065535;28;20480;-61